Southwest Georgia Regional Airport Albany US
ICAO: KABY
IATA: ABY
Category: Medium
Scheduled Services: Yes

Elevation: 197 ft
TransAlt. 18000 ft.

Airport Communications:
ATIS:133.05
JACKSONVILLE CNTR:125.75
CTAF:120.25
GND:121.9
MACON RDO:122.6
TWR:120.25
UNICOM:122.95

KABY Zoom In..

If Map Doesn't Load, Click Here

Runways:

(A) RW 04 length 6601 ft width 148 ft
ILS 108.50 / hdg 44

(B) RW 16 length 5219 ft width 148 ft
---- / hdg 164

(C) RW 22 length 6601 ft width 148 ft
---- / hdg 224

(D) RW 34 length 5219 ft width 148 ft
---- / hdg 344

Location; KABY
Day. 26 / Time. 10.53 Zulu
* Altimeter: 30.11
* Temperature: 23° c. 73.4°f.
* Wind from: 000° Speed 00 kn.
Dewpoint: 21° c.
Visibility: 10 Statute Miles.
Clouds: Clear (automated report).

KABY 261053Z AUTO 00000KT 10SM CLR 23/21 A3011 RMK AO2 SLP192 T02330211


Wind - Calm.

 
 
jpsmedia.com for Web Design worldairports.se 2018   terms of use